Spirit Of Tasmania II — VNSZ — position and weather

sailwx.info

Track history (hours):
 
Tides and Currents Weather Stations Pressure Air Temp Water Temp Dewpoint Dewpoint Depression Visibility Wind Speed Wind Dir Waves Ship Positions

Spirit Of Tasmania II

Last reported at 2019-Dec-12 08:00 UTC. Time now 2019-Dec-12 09:05 UTC.
Position S 37°48' E 144°54'.

Length 194.3 m; beam 25 m; draft 6.2 m.

Type: Ship. MMSI: 503433000.

Barometer 1019.4 mb
Air temperature 14.4 ° C
Water temperature 19.7 ° C

Date/timePositionNaut miles runAvg speedWind from/ knotsBaromVisibWave heightAir tempDewpointWater temp
2019-Dec-12 08:00S 37°48' E 144°54'0 0.0 1019.4 14.4 19.7
2019-Dec-12 07:00S 37°48' E 144°54'0 0.0 1018.9 14.7 19.7
2019-Dec-12 06:00S 37°48' E 144°54'0 0.0 1018.7 15.5 19.5
2019-Dec-12 05:00S 37°48' E 144°54'0 0.0 1019.0 15.1 19.2
2019-Dec-12 04:00S 37°48' E 144°54'0 0.0 1018.9 15.7 19.1
2019-Dec-12 03:00S 37°48' E 144°54'0 0.0 1019.2 15.8 19.0
2019-Dec-12 02:00S 37°48' E 144°54'0 0.0 1019.8 15.2 19.0
2019-Dec-12 01:00S 37°48' E 144°54'0 0.0 1019.8 15.0 18.9
2019-Dec-12 00:00S 37°48' E 144°54'0 0.0 1019.5 15.3 18.9
2019-Dec-11 23:00S 37°48' E 144°54'0 0.0 1019.2 15.0 18.8
2019-Dec-11 22:00S 37°48' E 144°54'0 0.0 1018.8 14.7 18.9
2019-Dec-11 21:00S 37°48' E 144°54'0 0.0 1018.4 14.3 18.9
2019-Dec-11 20:00S 37°48' E 144°54'0 0.0 1017.6 13.6 18.9
2019-Dec-11 19:00S 37°48' E 144°54'3015.0 1017.7 13.5 18.8
2019-Dec-11 17:00S 38°18' E 144°54'1515.2 1017.8 13.4 16.2
2019-Dec-11 16:00S 38°30' E 144°42'2020.3 1017.5 13.9 14.9
2019-Dec-11 15:00S 38°48' E 144°54'2827.8 1017.6 13.6 14.5
2019-Dec-11 14:00S 39°12' E 145°12'2020.3 1017.8 13.1 14.4
2019-Dec-11 13:00S 39°30' E 145°24'3131.4 1017.4 13.1 14.3
2019-Dec-11 12:00S 40°00' E 145°36'2827.7 1016.9 12.9 14.6
2019-Dec-11 11:00S 40°24' E 145°54'2625.7 1016.4 13.6 14.7
2019-Dec-11 10:00S 40°48' E 146°06'2424.7 1016.2 14.2 15.0
2019-Dec-11 09:01S 41°09' E 146°23'3196.8
2019-Dec-11 09:00S 41°12' E 146°24'0 0.0 1016.0 14.1 18.0
2019-Dec-11 08:00S 41°12' E 146°24'2 3.9 1016.5 14.8 17.7
2019-Dec-11 07:30S 41°11' E 146°22'2 3.8
2019-Dec-11 07:00S 41°12' E 146°24'0 0.0 1016.1 14.9 17.5
2019-Dec-11 06:00S 41°12' E 146°24'220.8 1016.6 15.3 17.4
2019-Dec-11 05:54S 41°11' E 146°22'2 2.1
2019-Dec-11 05:00S 41°12' E 146°24'2 2.5 1017.3 14.9 17.1
2019-Dec-11 04:14S 41°11' E 146°22'2 8.2
2019-Dec-11 04:00S 41°12' E 146°24'2 3.0 1017.5 15.1 16.7
2019-Dec-11 03:21S 41°11' E 146°22'0 0.0
2019-Dec-11 03:00S 41°11' E 146°22'2116.5
2019-Dec-11 03:00S 41°12' E 146°24'0 0.0 1018.0 15.2 16.2
2019-Dec-11 02:00S 41°12' E 146°24'0 0.0 1018.1 15.8 16.1
2019-Dec-11 01:00S 41°12' E 146°24'0 0.0 1018.4 15.2 15.8
2019-Dec-11 00:00S 41°12' E 146°24'2 1.9 1018.8 15.3 15.9
2019-Dec-10 23:01S 41°11' E 146°22'2114.5
2019-Dec-10 23:00S 41°12' E 146°24'0 0.0 1018.8 15.1 16.1
2019-Dec-10 22:00S 41°12' E 146°24'0 0.0 1019.4 14.4 16.0
2019-Dec-10 21:00S 41°12' E 146°24'0 0.0 1019.3 14.4 16.2
2019-Dec-10 20:00S 41°12' E 146°24'0 0.0 1019.2 13.6 16.2
2019-Dec-10 19:00S 41°12' E 146°24'2020.1 1019.3 13.1 16.9
2019-Dec-10 18:00S 40°54' E 146°12'2625.7 1018.8 13.4 14.0
2019-Dec-10 17:00S 40°30' E 146°00'2827.6 1018.0 13.4 13.9
2019-Dec-10 16:00S 40°06' E 145°42'2625.7 1018.1 13.3 14.0
2019-Dec-10 15:00S 39°42' E 145°30'2827.7 1017.9 12.6 13.8
2019-Dec-10 14:00S 39°18' E 145°12'2020.3 1018.8 12.3 14.0
2019-Dec-10 13:00S 39°00' E 145°00'2625.8 1019.9 12.6 14.7
2019-Dec-10 12:00S 38°36' E 144°48'2412.2 1020.9 13.3 15.4
2019-Dec-10 10:00S 38°12' E 144°54'2412.0 1020.7 13.5 17.6
2019-Dec-10 08:00S 37°48' E 144°54'0 0.0 1020.5 14.5 20.0
2019-Dec-10 07:00S 37°48' E 144°54'0 0.0 1019.9 14.4 20.0
2019-Dec-10 06:00S 37°48' E 144°54'0 0.0 1020.1 14.9 19.8
2019-Dec-10 05:00S 37°48' E 144°54'0 0.0 1020.3 14.9 19.6
2019-Dec-10 04:00S 37°48' E 144°54'0 0.0 1020.6 15.5 19.7
2019-Dec-10 03:00S 37°48' E 144°54'0 0.0 1020.7 14.8 19.5
2019-Dec-10 02:00S 37°48' E 144°54'0 0.0 1020.6 14.8 19.2
2019-Dec-10 01:00S 37°48' E 144°54'0 0.0 1020.1 15.1 18.9
2019-Dec-10 00:00S 37°48' E 144°54'0 0.0 1019.8 15.5 18.8
2019-Dec-09 23:00S 37°48' E 144°54'0 0.0 1019.5 14.7 18.7
2019-Dec-09 22:00S 37°48' E 144°54'0 0.0 1019.1 14.7 18.6
2019-Dec-09 21:00S 37°48' E 144°54'0 0.0 1018.2 14.4 18.5
2019-Dec-09 20:00S 37°48' E 144°54'0 0.0 1017.9 14.3 18.5
2019-Dec-09 19:00S 37°48' E 144°54'1212.0 1017.5 14.5 18.7
2019-Dec-09 18:00S 38°00' E 144°54'1918.6 1017.2 14.0
2019-Dec-09 17:00S 38°18' E 144°48'1312.9 1016.9 13.8 16.2
2019-Dec-09 16:00S 38°30' E 144°42'2020.3 1016.5 13.5
2019-Dec-09 15:00S 38°48' E 144°54'2827.8 1016.8 13.1 14.4
2019-Dec-09 14:00S 39°12' E 145°12'2020.3 1016.9 13.0 14.1
2019-Dec-09 13:00S 39°30' E 145°24'2625.7 1013.1 12.8 14.0
2019-Dec-09 12:00S 39°54' E 145°36'2625.7 1012.8 13.2 14.2
2019-Dec-09 11:00S 40°18' E 145°48'2322.6 1012.2 14.0 14.2
2019-Dec-09 10:00S 40°36' E 146°06'2625.7 1011.6 14.6 14.4
2019-Dec-09 09:00S 41°00' E 146°18'1312.8 1011.4 15.6 15.2
2019-Dec-09 08:00S 41°12' E 146°24'2 1.9 1011.4 17.3 15.2
2019-Dec-09 07:01S 41°11' E 146°22'2110.8
2019-Dec-09 07:00S 41°12' E 146°24'0 0.0 1012.0 18.1 15.6
2019-Dec-09 06:00S 41°12' E 146°24'0 0.0 1012.2 18.0 15.7
2019-Dec-09 05:00S 41°12' E 146°24'2 4.0 1012.8 17.6 15.8
2019-Dec-09 04:31S 41°11' E 146°22'2 3.7
2019-Dec-09 04:00S 41°12' E 146°24'2 3.9 1013.2 16.4 15.6
2019-Dec-09 03:30S 41°11' E 146°22'2 3.7
2019-Dec-09 03:00S 41°12' E 146°24'0 0.0 1014.9 16.5 15.3
2019-Dec-09 02:00S 41°12' E 146°24'0 0.0 1016.0 16.8 14.9
2019-Dec-09 01:00S 41°12' E 146°24'0 0.0 1016.7 16.5
2019-Dec-09 00:00S 41°12' E 146°24'0 0.0 1017.0 16.3 14.9
2019-Dec-08 23:00S 41°12' E 146°24'2 3.5 1017.4 17.0 14.7
2019-Dec-08 22:27S 41°11' E 146°22'2 4.2
2019-Dec-08 22:00S 41°12' E 146°24'0 0.0 1017.3 15.4 14.7
2019-Dec-08 21:00S 41°12' E 146°24'1122.7 1017.1 14.1 15.0
2019-Dec-08 20:30S 41°02' E 146°18'1325.4
2019-Dec-08 20:00S 40°50' E 146°11'2929.0
2019-Dec-08 19:00S 40°24' E 145°54'4823.9 1015.1 13.5 13.9
2019-Dec-08 17:00S 39°42' E 145°24'2625.7 1014.4 13.9 13.9
2019-Dec-08 16:00S 39°18' E 145°12'2827.8 1014.2 13.9 14.3
2019-Dec-08 15:00S 38°54' E 144°54'2625.8 1014.5 14.6 15.0
2019-Dec-08 14:00S 38°30' E 144°42'1515.2 1015.2 16.8 16.0
2019-Dec-08 13:00S 38°18' E 144°54'1818.0 1016.5 17.2 17.1
2019-Dec-08 12:00S 38°00' E 144°54'1212.0 1016.2 18.1 18.3
2019-Dec-08 11:00S 37°48' E 144°54'0 0.0 1017.1 20.7 19.8
2019-Dec-08 10:00S 37°48' E 144°54'0 0.0 1017.0 19.4 19.8
2019-Dec-08 09:00S 37°48' E 144°54'1212.0 1016.4 20.1
2019-Dec-08 08:00S 38°00' E 144°54'1818.0 1016.3 19.4 17.5
2019-Dec-08 07:00S 38°18' E 144°54'1515.2 1017.1 19.5 16.7
2019-Dec-08 06:00S 38°30' E 144°42'2625.8 1017.7 14.1 15.1
2019-Dec-08 05:00S 38°54' E 144°54'2827.8 1018.7 14.0 14.9
2019-Dec-08 04:00S 39°18' E 145°12'2020.2 1019.7 13.9 14.2
2019-Dec-08 03:00S 39°36' E 145°24'2827.7 1020.3 13.8 13.9
2019-Dec-08 02:00S 40°00' E 145°42'3333.0 1020.4 13.0 14.1
2019-Dec-08 01:00S 40°30' E 146°00'2423.9 1020.0 13.1 13.9
2019-Dec-08 00:01S 40°51' E 146°13'3156.1
2019-Dec-08 00:00S 40°54' E 146°12'1224.6 1019.7 14.1 14.1
2019-Dec-07 23:31S 41°04' E 146°20'816.1
2019-Dec-07 23:00S 41°12' E 146°24'2 1.2 1019.5 16.1 14.5
2019-Dec-07 21:26S 41°11' E 146°22'2 4.3
2019-Dec-07 21:00S 41°12' E 146°24'2 3.9 1018.7 13.2 14.0
2019-Dec-07 20:30S 41°11' E 146°22'2 3.7
2019-Dec-07 20:00S 41°12' E 146°24'1312.8 1018.2 11.6 14.5
2019-Dec-07 19:00S 41°00' E 146°18'2827.6 1016.9 11.9 13.6
2019-Dec-07 18:00S 40°36' E 146°00'2625.7 1017.3 12.0 13.5
2019-Dec-07 17:00S 40°12' E 145°48'2625.7 1017.7 12.1 13.6
2019-Dec-07 16:00S 39°48' E 145°36'2827.7 1018.3 12.1 13.5
2019-Dec-07 15:00S 39°24' E 145°18'2625.7 1019.0 12.2 13.7
2019-Dec-07 14:00S 39°00' E 145°06'2827.8 1019.5 12.9 14.2
2019-Dec-07 13:00S 38°36' E 144°48'1918.6 1019.4 12.9
2019-Dec-07 12:00S 38°18' E 144°42'1111.2 1020.1 13.4 16.4
2019-Dec-07 11:00S 38°12' E 144°54'2424.0 1019.6 13.6 17.1
2019-Dec-07 10:00S 37°48' E 144°54'0 0.0 1019.4 14.0 18.8
2019-Dec-07 09:00S 37°48' E 144°54'0 0.0 1018.9 14.3 18.8
2019-Dec-07 08:00S 37°48' E 144°54'0 0.0 1018.2 14.7 18.7
2019-Dec-07 07:00S 37°48' E 144°54'1818.0 1017.7 14.9 17.8
2019-Dec-07 06:00S 38°06' E 144°54'1515.3 1017.3 14.5 16.6
2019-Dec-07 05:00S 38°18' E 144°42'1312.9 1017.1 13.8 16.1
2019-Dec-07 04:00S 38°30' E 144°48'7926.3 1016.4 13.6 14.5
2019-Dec-07 01:00S 39°42' E 145°30'2827.7 1012.8 12.7 13.5
2019-Dec-07 00:00S 40°06' E 145°48'2625.7 1010.4 12.3 13.7
2019-Dec-06 23:00S 40°30' E 146°00'3333.0 1008.1 12.6 13.8
2019-Dec-06 22:00S 41°00' E 146°18'1312.8 1006.9 12.7 14.0
2019-Dec-06 21:00S 41°12' E 146°24'0 0.0 1007.1 13.0 13.7
2019-Dec-06 20:00S 41°12' E 146°24'0 0.0 1007.4 11.6 13.9
2019-Dec-06 19:00S 41°12' E 146°24'8 7.5 1007.1 11.3 14.1
2019-Dec-06 18:00S 41°06' E 146°18'2625.7 1006.1 11.3 13.4
2019-Dec-06 17:00S 40°42' E 146°06'2625.7 1007.0 11.3 13.5
2019-Dec-06 16:00S 40°18' E 145°54'4823.9 1008.3 11.7 13.5
2019-Dec-06 14:00S 39°36' E 145°24'2827.7 1011.8 12.2 13.5
2019-Dec-06 13:00S 39°12' E 145°06'2625.7 1013.6 12.7 14.0
2019-Dec-06 12:00S 38°48' E 144°54'2827.8 1014.1 13.2 14.7
2019-Dec-06 11:00S 38°24' E 144°36'1515.3 1014.9 13.5 15.6
2019-Dec-06 10:00S 38°18' E 144°54'2424.0 1014.2 14.0 16.6
2019-Dec-06 09:00S 37°54' E 144°54'6 6.0 1013.9 15.7 17.5
2019-Dec-06 08:00S 37°48' E 144°54'0 0.0 1013.2 16.9 17.8
2019-Dec-06 07:00S 37°48' E 144°54'0 0.0 1012.2 17.8 17.8
2019-Dec-06 06:00S 37°48' E 144°54'0 0.0 1011.9 18.4 17.7
2019-Dec-06 05:00S 37°48' E 144°54'0 0.0 1011.7 18.4 17.7
2019-Dec-06 04:00S 37°48' E 144°54'0 0.0 1011.6 18.7 17.6
2019-Dec-06 03:00S 37°48' E 144°54'0 0.0 1011.7 18.2 17.5
2019-Dec-06 02:00S 37°48' E 144°54'0 0.0 1011.7 17.0 17.5
2019-Dec-06 00:00S 37°48' E 144°54'0 0.0 1011.5 15.6 17.3
2019-Dec-05 23:00S 37°48' E 144°54'0 0.0 1011.8 14.2 17.3
2019-Dec-05 22:00S 37°48' E 144°54'0 0.0 1011.4 13.8 17.3
2019-Dec-05 21:00S 37°48' E 144°54'0 0.0 1011.1 13.3 17.2
2019-Dec-05 20:00S 37°48' E 144°54'0 0.0 1010.4 12.9 17.3
2019-Dec-05 19:00S 37°48' E 144°54'3015.2 1010.6 13.1 17.6
2019-Dec-05 17:00S 38°18' E 144°48'1312.9 1009.3 13.1 15.8
2019-Dec-05 16:00S 38°30' E 144°42'2625.8 1007.9 13.0 14.8
2019-Dec-05 15:00S 38°54' E 144°54'2322.8 1006.6 12.3 14.1
2019-Dec-05 14:00S 39°12' E 145°12'2625.7 1006.5 12.5 13.8
2019-Dec-05 13:00S 39°36' E 145°24'2827.7 1005.5 12.5 13.5
2019-Dec-05 12:00S 40°00' E 145°42'2625.7 1004.8 12.3 13.8
2019-Dec-05 11:00S 40°24' E 145°54'2827.6 1003.0 11.9 13.9
2019-Dec-05 10:00S 40°48' E 146°12'2222.2 1001.1 12.1 14.0
2019-Dec-05 09:00S 41°08' E 146°23'4255.6
2019-Dec-05 09:00S 41°12' E 146°24'0 0.0 1000.5 13.5
2019-Dec-05 08:00S 41°12' E 146°24'0 0.0 999.3 15.0 14.2
2019-Dec-05 06:00S 41°12' E 146°24'2 7.4 998.1 16.7 14.2
2019-Dec-05 05:44S 41°11' E 146°22'0 0.0
2019-Dec-05 05:31S 41°11' E 146°22'2 3.7
2019-Dec-05 05:00S 41°12' E 146°24'2124.9 997.7 16.9 14.1
2019-Dec-05 04:59S 41°11' E 146°22'2 1.9
2019-Dec-05 04:00S 41°12' E 146°24'0 0.0 998.0 17.3 14.4
2019-Dec-05 03:00S 41°12' E 146°24'0 0.0 998.2 17.1 14.5
2019-Dec-05 02:00S 41°12' E 146°24'2127.2 998.2 17.3 14.3
2019-Dec-05 01:59S 41°11' E 146°22'0 0.0
2019-Dec-05 01:01S 41°11' E 146°22'2110.8
2019-Dec-05 01:00S 41°12' E 146°24'0 0.0 997.8 16.4 14.0
2019-Dec-05 00:00S 41°12' E 146°24'0 0.0 998.3 16.0 13.8
2019-Dec-04 23:00S 41°12' E 146°24'0 0.0 998.6 14.7 13.7
2019-Dec-04 22:00S 41°12' E 146°24'0 0.0 998.8 13.8 13.6
2019-Dec-04 21:00S 41°12' E 146°24'0 0.0 998.8 13.2 13.8
2019-Dec-04 20:00S 41°12' E 146°24'2 1.9 998.8 12.5 13.7
2019-Dec-04 19:00S 41°11' E 146°22'2118.5
2019-Dec-04 19:00S 41°12' E 146°24'1918.6 998.6 11.5 14.7
2019-Dec-04 18:00S 40°54' E 146°18'2020.2 999.1 11.4 13.5
2019-Dec-04 17:00S 40°36' E 146°06'2020.2 1000.5 11.9 13.7
2019-Dec-04 16:00S 40°18' E 145°54'2827.7 1002.3 11.8 13.6
2019-Dec-04 15:00S 39°54' E 145°36'2625.7 1004.1 12.3 13.5
2019-Dec-04 14:00S 39°30' E 145°24'2827.7 1005.5 12.7 13.7
2019-Dec-04 13:00S 39°06' E 145°06'2020.3 1007.3 13.2 14.1
2019-Dec-04 12:00S 38°48' E 144°54'4816.0 1008.1 13.7 14.7
2019-Dec-04 09:00S 38°00' E 144°54'1212.0 1010.2 15.6 17.7
2019-Dec-04 08:00S 37°48' E 144°54'0 0.0 1010.0 15.9 17.9
2019-Dec-04 07:00S 37°48' E 144°54'0 0.0 1009.2 17.4 17.9
2019-Dec-04 06:00S 37°48' E 144°54'0 0.0 1009.1 17.8 17.7
2019-Dec-04 05:00S 37°48' E 144°54'0 0.0 1010.2 20.3 17.5
2019-Dec-04 04:00S 37°48' E 144°54'0 0.0 1010.2 19.5 17.3
2019-Dec-04 03:00S 37°48' E 144°54'0 0.0 1010.4 18.8 17.2
2019-Dec-04 02:00S 37°48' E 144°54'0 0.0 1010.7 17.8 17.2
2019-Dec-04 01:00S 37°48' E 144°54'0 0.0 1011.0 16.5 17.2
2019-Dec-03 23:00S 37°48' E 144°54'0 0.0 1011.2 14.5 17.1
2019-Dec-03 22:00S 37°48' E 144°54'0 0.0 1011.4 13.9 17.2
2019-Dec-03 21:00S 37°48' E 144°54'0 0.0 1011.2 12.9 17.2
2019-Dec-03 20:00S 37°48' E 144°54'0 0.0 1010.9 12.3 17.2
2019-Dec-03 19:00S 37°48' E 144°54'1818.0 1010.2 11.8
2019-Dec-03 18:00S 38°06' E 144°54'1515.3 1007.9 11.5 16.1
2019-Dec-03 17:00S 38°18' E 144°42'1918.6 1008.7 11.2 15.2
2019-Dec-03 16:00S 38°36' E 144°48'2625.8 1006.3 12.4 14.6
2019-Dec-03 15:00S 39°00' E 145°00'2322.8 1005.0 12.4 13.9
2019-Dec-03 14:00S 39°18' E 145°18'2625.7 1004.4 12.3 13.7
2019-Dec-03 13:00S 39°42' E 145°30'5326.6 1004.3 11.5
2019-Dec-03 11:00S 40°30' E 146°00'2625.7 999.7 11.4 13.8
2019-Dec-03 10:00S 40°54' E 146°12'1123.8 996.8 10.2 13.9
2019-Dec-03 09:30S 41°04' E 146°20'714.5
2019-Dec-03 09:00S 41°11' E 146°22'0 0.2
2019-Dec-03 08:29S 41°11' E 146°22'2 3.9
2019-Dec-03 08:00S 41°12' E 146°24'2 3.8 995.8 11.5 14.1
2019-Dec-03 07:29S 41°11' E 146°22'2 3.9
2019-Dec-03 07:00S 41°12' E 146°24'2 3.7 994.4 12.7 14.1
2019-Dec-03 06:29S 41°11' E 146°22'0 0.0
2019-Dec-03 05:30S 41°11' E 146°22'2 3.7
2019-Dec-03 05:00S 41°12' E 146°24'2 3.9 992.3 15.7 14.3
2019-Dec-03 04:30S 41°11' E 146°22'2 3.7
2019-Dec-03 04:00S 41°12' E 146°24'2122.7 992.7 15.4 14.4
2019-Dec-03 03:59S 41°11' E 146°22'0 0.0
2019-Dec-03 03:28S 41°11' E 146°22'2 4.1
2019-Dec-03 03:00S 41°12' E 146°24'0 0.0 993.0 14.1 14.3
2019-Dec-03 02:00S 41°12' E 146°24'0 0.0 992.8 15.2 14.2
2019-Dec-03 01:00S 41°12' E 146°24'2 3.9 993.2 15.3 14.2
2019-Dec-03 00:30S 41°11' E 146°22'2 1.3
2019-Dec-02 23:00S 41°12' E 146°24'270.8 992.3 13.7 13.9
2019-Dec-02 22:58S 41°11' E 146°22'0 0.0
2019-Dec-02 22:28S 41°11' E 146°22'2 4.1
2019-Dec-02 22:00S 41°12' E 146°24'2 3.9 991.8 13.1 13.8
2019-Dec-02 21:30S 41°11' E 146°22'2 3.7
2019-Dec-02 21:00S 41°12' E 146°24'0 0.0 991.3 12.5 13.8
2019-Dec-02 20:00S 41°12' E 146°24'2 3.8 990.5 11.5 13.9
2019-Dec-02 19:29S 41°11' E 146°22'0 0.0
2019-Dec-02 19:00S 41°11' E 146°22'2132.1
2019-Dec-02 19:00S 41°12' E 146°24'5 9.7 990.6 10.3 14.5
2019-Dec-02 18:30S 41°08' E 146°22'2423.8
2019-Dec-02 17:30S 40°46' E 146°09'1223.1
2019-Dec-02 17:00S 40°36' E 146°00'2625.7 992.2 11.2 13.7
2019-Dec-02 16:00S 40°12' E 145°48'2625.7 994.6 11.4 13.8
2019-Dec-02 15:00S 39°48' E 145°36'2322.7 996.4 11.3 13.7
2019-Dec-02 14:00S 39°30' E 145°18'4623.0 998.6 11.7 13.8
2019-Dec-02 12:00S 38°48' E 144°54'2625.8 1001.8 11.2 14.8
2019-Dec-02 11:00S 38°24' E 144°42'1111.2 1002.8 11.9 15.3
2019-Dec-02 10:00S 38°18' E 144°54'1818.0 1002.7 12.0 16.5
2019-Dec-02 09:00S 38°00' E 144°54'1212.0 1002.9 12.7 17.6
2019-Dec-02 08:00S 37°48' E 144°54'   1003.4 13.3 17.6
Track history (hours):
 
Tides and Currents Weather Stations Pressure Air Temp Water Temp Dewpoint Dewpoint Depression Visibility Wind Speed Wind Dir Waves Ship Positions

Spirit Of Tasmania II

Last reported at 2019-Dec-12 08:00 UTC. Time now 2019-Dec-12 09:05 UTC.
Position S 37°48' E 144°54'.

Length 194.3 m; beam 25 m; draft 6.2 m.

Type: Ship. MMSI: 503433000.

Barometer 1019.4 mb
Air temperature 14.4 ° C
Water temperature 19.7 ° C

Date/timePositionNaut miles runAvg speedWind from/ knotsBaromVisibWave heightAir tempDewpointWater temp
2019-Dec-12 08:00S 37°48' E 144°54'0 0.0 1019.4 14.4 19.7
2019-Dec-12 07:00S 37°48' E 144°54'0 0.0 1018.9 14.7 19.7
2019-Dec-12 06:00S 37°48' E 144°54'0 0.0 1018.7 15.5 19.5
2019-Dec-12 05:00S 37°48' E 144°54'0 0.0 1019.0 15.1 19.2
2019-Dec-12 04:00S 37°48' E 144°54'0 0.0 1018.9 15.7 19.1
2019-Dec-12 03:00S 37°48' E 144°54'0 0.0 1019.2 15.8 19.0
2019-Dec-12 02:00S 37°48' E 144°54'0 0.0 1019.8 15.2 19.0
2019-Dec-12 01:00S 37°48' E 144°54'0 0.0 1019.8 15.0 18.9
2019-Dec-12 00:00S 37°48' E 144°54'0 0.0 1019.5 15.3 18.9
2019-Dec-11 23:00S 37°48' E 144°54'0 0.0 1019.2 15.0 18.8
2019-Dec-11 22:00S 37°48' E 144°54'0 0.0 1018.8 14.7 18.9
2019-Dec-11 21:00S 37°48' E 144°54'0 0.0 1018.4 14.3 18.9
2019-Dec-11 20:00S 37°48' E 144°54'0 0.0 1017.6 13.6 18.9
2019-Dec-11 19:00S 37°48' E 144°54'3015.0 1017.7 13.5 18.8
2019-Dec-11 17:00S 38°18' E 144°54'1515.2 1017.8 13.4 16.2
2019-Dec-11 16:00S 38°30' E 144°42'2020.3 1017.5 13.9 14.9
2019-Dec-11 15:00S 38°48' E 144°54'2827.8 1017.6 13.6 14.5
2019-Dec-11 14:00S 39°12' E 145°12'2020.3 1017.8 13.1 14.4
2019-Dec-11 13:00S 39°30' E 145°24'3131.4 1017.4 13.1 14.3
2019-Dec-11 12:00S 40°00' E 145°36'2827.7 1016.9 12.9 14.6
2019-Dec-11 11:00S 40°24' E 145°54'2625.7 1016.4 13.6 14.7
2019-Dec-11 10:00S 40°48' E 146°06'2424.7 1016.2 14.2 15.0
2019-Dec-11 09:01S 41°09' E 146°23'3196.8
2019-Dec-11 09:00S 41°12' E 146°24'0 0.0 1016.0 14.1 18.0
2019-Dec-11 08:00S 41°12' E 146°24'2 3.9 1016.5 14.8 17.7
2019-Dec-11 07:30S 41°11' E 146°22'2 3.8
2019-Dec-11 07:00S 41°12' E 146°24'0 0.0 1016.1 14.9 17.5
2019-Dec-11 06:00S 41°12' E 146°24'220.8 1016.6 15.3 17.4
2019-Dec-11 05:54S 41°11' E 146°22'2 2.1
2019-Dec-11 05:00S 41°12' E 146°24'2 2.5 1017.3 14.9 17.1
2019-Dec-11 04:14S 41°11' E 146°22'2 8.2
2019-Dec-11 04:00S 41°12' E 146°24'2 3.0 1017.5 15.1 16.7
2019-Dec-11 03:21S 41°11' E 146°22'0 0.0
2019-Dec-11 03:00S 41°11' E 146°22'2116.5
2019-Dec-11 03:00S 41°12' E 146°24'0 0.0 1018.0 15.2 16.2
2019-Dec-11 02:00S 41°12' E 146°24'0 0.0 1018.1 15.8 16.1
2019-Dec-11 01:00S 41°12' E 146°24'0 0.0 1018.4 15.2 15.8
2019-Dec-11 00:00S 41°12' E 146°24'2 1.9 1018.8 15.3 15.9
2019-Dec-10 23:01S 41°11' E 146°22'2114.5
2019-Dec-10 23:00S 41°12' E 146°24'0 0.0 1018.8 15.1 16.1
2019-Dec-10 22:00S 41°12' E 146°24'0 0.0 1019.4 14.4 16.0
2019-Dec-10 21:00S 41°12' E 146°24'0 0.0 1019.3 14.4 16.2
2019-Dec-10 20:00S 41°12' E 146°24'0 0.0 1019.2 13.6 16.2
2019-Dec-10 19:00S 41°12' E 146°24'2020.1 1019.3 13.1 16.9
2019-Dec-10 18:00S 40°54' E 146°12'2625.7 1018.8 13.4 14.0
2019-Dec-10 17:00S 40°30' E 146°00'2827.6 1018.0 13.4 13.9
2019-Dec-10 16:00S 40°06' E 145°42'2625.7 1018.1 13.3 14.0
2019-Dec-10 15:00S 39°42' E 145°30'2827.7 1017.9 12.6 13.8
2019-Dec-10 14:00S 39°18' E 145°12'2020.3 1018.8 12.3 14.0
2019-Dec-10 13:00S 39°00' E 145°00'2625.8 1019.9 12.6 14.7
2019-Dec-10 12:00S 38°36' E 144°48'2412.2 1020.9 13.3 15.4
2019-Dec-10 10:00S 38°12' E 144°54'2412.0 1020.7 13.5 17.6
2019-Dec-10 08:00S 37°48' E 144°54'0 0.0 1020.5 14.5 20.0
2019-Dec-10 07:00S 37°48' E 144°54'0 0.0 1019.9 14.4 20.0
2019-Dec-10 06:00S 37°48' E 144°54'0 0.0 1020.1 14.9 19.8
2019-Dec-10 05:00S 37°48' E 144°54'0 0.0 1020.3 14.9 19.6
2019-Dec-10 04:00S 37°48' E 144°54'0 0.0 1020.6 15.5 19.7
2019-Dec-10 03:00S 37°48' E 144°54'0 0.0 1020.7 14.8 19.5
2019-Dec-10 02:00S 37°48' E 144°54'0 0.0 1020.6 14.8 19.2
2019-Dec-10 01:00S 37°48' E 144°54'0 0.0 1020.1 15.1 18.9
2019-Dec-10 00:00S 37°48' E 144°54'0 0.0 1019.8 15.5 18.8
2019-Dec-09 23:00S 37°48' E 144°54'0 0.0 1019.5 14.7 18.7
2019-Dec-09 22:00S 37°48' E 144°54'0 0.0 1019.1 14.7 18.6
2019-Dec-09 21:00S 37°48' E 144°54'0 0.0 1018.2 14.4 18.5
2019-Dec-09 20:00S 37°48' E 144°54'0 0.0 1017.9 14.3 18.5
2019-Dec-09 19:00S 37°48' E 144°54'1212.0 1017.5 14.5 18.7
2019-Dec-09 18:00S 38°00' E 144°54'1918.6 1017.2 14.0
2019-Dec-09 17:00S 38°18' E 144°48'1312.9 1016.9 13.8 16.2
2019-Dec-09 16:00S 38°30' E 144°42'2020.3 1016.5 13.5
2019-Dec-09 15:00S 38°48' E 144°54'2827.8 1016.8 13.1 14.4
2019-Dec-09 14:00S 39°12' E 145°12'2020.3 1016.9 13.0 14.1
2019-Dec-09 13:00S 39°30' E 145°24'2625.7 1013.1 12.8 14.0
2019-Dec-09 12:00S 39°54' E 145°36'2625.7 1012.8 13.2 14.2
2019-Dec-09 11:00S 40°18' E 145°48'2322.6 1012.2 14.0 14.2
2019-Dec-09 10:00S 40°36' E 146°06'2625.7 1011.6 14.6 14.4
2019-Dec-09 09:00S 41°00' E 146°18'1312.8 1011.4 15.6 15.2
2019-Dec-09 08:00S 41°12' E 146°24'2 1.9 1011.4 17.3 15.2
2019-Dec-09 07:01S 41°11' E 146°22'2110.8
2019-Dec-09 07:00S 41°12' E 146°24'0 0.0 1012.0 18.1 15.6
2019-Dec-09 06:00S 41°12' E 146°24'0 0.0 1012.2 18.0 15.7
2019-Dec-09 05:00S 41°12' E 146°24'2 4.0 1012.8 17.6 15.8
2019-Dec-09 04:31S 41°11' E 146°22'2 3.7
2019-Dec-09 04:00S 41°12' E 146°24'2 3.9 1013.2 16.4 15.6
2019-Dec-09 03:30S 41°11' E 146°22'2 3.7
2019-Dec-09 03:00S 41°12' E 146°24'0 0.0 1014.9 16.5 15.3
2019-Dec-09 02:00S 41°12' E 146°24'0 0.0 1016.0 16.8 14.9
2019-Dec-09 01:00S 41°12' E 146°24'0 0.0 1016.7 16.5
2019-Dec-09 00:00S 41°12' E 146°24'0 0.0 1017.0 16.3 14.9
2019-Dec-08 23:00S 41°12' E 146°24'2 3.5 1017.4 17.0 14.7
2019-Dec-08 22:27S 41°11' E 146°22'2 4.2
2019-Dec-08 22:00S 41°12' E 146°24'0 0.0 1017.3 15.4 14.7
2019-Dec-08 21:00S 41°12' E 146°24'1122.7 1017.1 14.1 15.0
2019-Dec-08 20:30S 41°02' E 146°18'1325.4
2019-Dec-08 20:00S 40°50' E 146°11'2929.0
2019-Dec-08 19:00S 40°24' E 145°54'4823.9 1015.1 13.5 13.9
2019-Dec-08 17:00S 39°42' E 145°24'2625.7 1014.4 13.9 13.9
2019-Dec-08 16:00S 39°18' E 145°12'2827.8 1014.2 13.9 14.3
2019-Dec-08 15:00S 38°54' E 144°54'2625.8 1014.5 14.6 15.0
2019-Dec-08 14:00S 38°30' E 144°42'1515.2 1015.2 16.8 16.0
2019-Dec-08 13:00S 38°18' E 144°54'1818.0 1016.5 17.2 17.1
2019-Dec-08 12:00S 38°00' E 144°54'1212.0 1016.2 18.1 18.3
2019-Dec-08 11:00S 37°48' E 144°54'0 0.0 1017.1 20.7 19.8
2019-Dec-08 10:00S 37°48' E 144°54'0 0.0 1017.0 19.4 19.8
2019-Dec-08 09:00S 37°48' E 144°54'1212.0 1016.4 20.1
2019-Dec-08 08:00S 38°00' E 144°54'1818.0 1016.3 19.4 17.5
2019-Dec-08 07:00S 38°18' E 144°54'1515.2 1017.1 19.5 16.7
2019-Dec-08 06:00S 38°30' E 144°42'2625.8 1017.7 14.1 15.1
2019-Dec-08 05:00S 38°54' E 144°54'2827.8 1018.7 14.0 14.9
2019-Dec-08 04:00S 39°18' E 145°12'2020.2 1019.7 13.9 14.2
2019-Dec-08 03:00S 39°36' E 145°24'2827.7 1020.3 13.8 13.9
2019-Dec-08 02:00S 40°00' E 145°42'3333.0 1020.4 13.0 14.1
2019-Dec-08 01:00S 40°30' E 146°00'2423.9 1020.0 13.1 13.9
2019-Dec-08 00:01S 40°51' E 146°13'3156.1
2019-Dec-08 00:00S 40°54' E 146°12'1224.6 1019.7 14.1 14.1
2019-Dec-07 23:31S 41°04' E 146°20'816.1
2019-Dec-07 23:00S 41°12' E 146°24'2 1.2 1019.5 16.1 14.5
2019-Dec-07 21:26S 41°11' E 146°22'2 4.3
2019-Dec-07 21:00S 41°12' E 146°24'2 3.9 1018.7 13.2 14.0
2019-Dec-07 20:30S 41°11' E 146°22'2 3.7
2019-Dec-07 20:00S 41°12' E 146°24'1312.8 1018.2 11.6 14.5
2019-Dec-07 19:00S 41°00' E 146°18'2827.6 1016.9 11.9 13.6
2019-Dec-07 18:00S 40°36' E 146°00'2625.7 1017.3 12.0 13.5
2019-Dec-07 17:00S 40°12' E 145°48'2625.7 1017.7 12.1 13.6
2019-Dec-07 16:00S 39°48' E 145°36'2827.7 1018.3 12.1 13.5
2019-Dec-07 15:00S 39°24' E 145°18'2625.7 1019.0 12.2 13.7
2019-Dec-07 14:00S 39°00' E 145°06'2827.8 1019.5 12.9 14.2
2019-Dec-07 13:00S 38°36' E 144°48'1918.6 1019.4 12.9
2019-Dec-07 12:00S 38°18' E 144°42'1111.2 1020.1 13.4 16.4
2019-Dec-07 11:00S 38°12' E 144°54'2424.0 1019.6 13.6 17.1
2019-Dec-07 10:00S 37°48' E 144°54'0 0.0 1019.4 14.0 18.8
2019-Dec-07 09:00S 37°48' E 144°54'0 0.0 1018.9 14.3 18.8
2019-Dec-07 08:00S 37°48' E 144°54'0 0.0 1018.2 14.7 18.7
2019-Dec-07 07:00S 37°48' E 144°54'1818.0 1017.7 14.9 17.8
2019-Dec-07 06:00S 38°06' E 144°54'1515.3 1017.3 14.5 16.6
2019-Dec-07 05:00S 38°18' E 144°42'1312.9 1017.1 13.8 16.1
2019-Dec-07 04:00S 38°30' E 144°48'7926.3 1016.4 13.6 14.5
2019-Dec-07 01:00S 39°42' E 145°30'2827.7 1012.8 12.7 13.5
2019-Dec-07 00:00S 40°06' E 145°48'2625.7 1010.4 12.3 13.7
2019-Dec-06 23:00S 40°30' E 146°00'3333.0 1008.1 12.6 13.8
2019-Dec-06 22:00S 41°00' E 146°18'1312.8 1006.9 12.7 14.0
2019-Dec-06 21:00S 41°12' E 146°24'0 0.0 1007.1 13.0 13.7
2019-Dec-06 20:00S 41°12' E 146°24'0 0.0 1007.4 11.6 13.9
2019-Dec-06 19:00S 41°12' E 146°24'8 7.5 1007.1 11.3 14.1
2019-Dec-06 18:00S 41°06' E 146°18'2625.7 1006.1 11.3 13.4
2019-Dec-06 17:00S 40°42' E 146°06'2625.7 1007.0 11.3 13.5
2019-Dec-06 16:00S 40°18' E 145°54'4823.9 1008.3 11.7 13.5
2019-Dec-06 14:00S 39°36' E 145°24'2827.7 1011.8 12.2 13.5
2019-Dec-06 13:00S 39°12' E 145°06'2625.7 1013.6 12.7 14.0
2019-Dec-06 12:00S 38°48' E 144°54'2827.8 1014.1 13.2 14.7
2019-Dec-06 11:00S 38°24' E 144°36'1515.3 1014.9 13.5 15.6
2019-Dec-06 10:00S 38°18' E 144°54'2424.0 1014.2 14.0 16.6
2019-Dec-06 09:00S 37°54' E 144°54'6 6.0 1013.9 15.7 17.5
2019-Dec-06 08:00S 37°48' E 144°54'0 0.0 1013.2 16.9 17.8
2019-Dec-06 07:00S 37°48' E 144°54'0 0.0 1012.2 17.8 17.8
2019-Dec-06 06:00S 37°48' E 144°54'0 0.0 1011.9 18.4 17.7
2019-Dec-06 05:00S 37°48' E 144°54'0 0.0 1011.7 18.4 17.7
2019-Dec-06 04:00S 37°48' E 144°54'0 0.0 1011.6 18.7 17.6
2019-Dec-06 03:00S 37°48' E 144°54'0 0.0 1011.7 18.2 17.5
2019-Dec-06 02:00S 37°48' E 144°54'0 0.0 1011.7 17.0 17.5
2019-Dec-06 00:00S 37°48' E 144°54'0 0.0 1011.5 15.6 17.3
2019-Dec-05 23:00S 37°48' E 144°54'0 0.0 1011.8 14.2 17.3
2019-Dec-05 22:00S 37°48' E 144°54'0 0.0 1011.4 13.8 17.3
2019-Dec-05 21:00S 37°48' E 144°54'0 0.0 1011.1 13.3 17.2
2019-Dec-05 20:00S 37°48' E 144°54'0 0.0 1010.4 12.9 17.3
2019-Dec-05 19:00S 37°48' E 144°54'3015.2 1010.6 13.1 17.6
2019-Dec-05 17:00S 38°18' E 144°48'1312.9 1009.3 13.1 15.8
2019-Dec-05 16:00S 38°30' E 144°42'2625.8 1007.9 13.0 14.8
2019-Dec-05 15:00S 38°54' E 144°54'2322.8 1006.6 12.3 14.1
2019-Dec-05 14:00S 39°12' E 145°12'2625.7 1006.5 12.5 13.8
2019-Dec-05 13:00S 39°36' E 145°24'2827.7 1005.5 12.5 13.5
2019-Dec-05 12:00S 40°00' E 145°42'2625.7 1004.8 12.3 13.8
2019-Dec-05 11:00S 40°24' E 145°54'2827.6 1003.0 11.9 13.9
2019-Dec-05 10:00S 40°48' E 146°12'2222.2 1001.1 12.1 14.0
2019-Dec-05 09:00S 41°08' E 146°23'4255.6
2019-Dec-05 09:00S 41°12' E 146°24'0 0.0 1000.5 13.5
2019-Dec-05 08:00S 41°12' E 146°24'0 0.0 999.3 15.0 14.2
2019-Dec-05 06:00S 41°12' E 146°24'2 7.4 998.1 16.7 14.2
2019-Dec-05 05:44S 41°11' E 146°22'0 0.0
2019-Dec-05 05:31S 41°11' E 146°22'2 3.7
2019-Dec-05 05:00S 41°12' E 146°24'2124.9 997.7 16.9 14.1
2019-Dec-05 04:59S 41°11' E 146°22'2 1.9
2019-Dec-05 04:00S 41°12' E 146°24'0 0.0 998.0 17.3 14.4
2019-Dec-05 03:00S 41°12' E 146°24'0 0.0 998.2 17.1 14.5
2019-Dec-05 02:00S 41°12' E 146°24'2127.2 998.2 17.3 14.3
2019-Dec-05 01:59S 41°11' E 146°22'0 0.0
2019-Dec-05 01:01S 41°11' E 146°22'2110.8
2019-Dec-05 01:00S 41°12' E 146°24'0 0.0 997.8 16.4 14.0
2019-Dec-05 00:00S 41°12' E 146°24'0 0.0 998.3 16.0 13.8
2019-Dec-04 23:00S 41°12' E 146°24'0 0.0 998.6 14.7 13.7
2019-Dec-04 22:00S 41°12' E 146°24'0 0.0 998.8 13.8 13.6
2019-Dec-04 21:00S 41°12' E 146°24'0 0.0 998.8 13.2 13.8
2019-Dec-04 20:00S 41°12' E 146°24'2 1.9 998.8 12.5 13.7
2019-Dec-04 19:00S 41°11' E 146°22'2118.5
2019-Dec-04 19:00S 41°12' E 146°24'1918.6 998.6 11.5 14.7
2019-Dec-04 18:00S 40°54' E 146°18'2020.2 999.1 11.4 13.5
2019-Dec-04 17:00S 40°36' E 146°06'2020.2 1000.5 11.9 13.7
2019-Dec-04 16:00S 40°18' E 145°54'2827.7 1002.3 11.8 13.6
2019-Dec-04 15:00S 39°54' E 145°36'2625.7 1004.1 12.3 13.5
2019-Dec-04 14:00S 39°30' E 145°24'2827.7 1005.5 12.7 13.7
2019-Dec-04 13:00S 39°06' E 145°06'2020.3 1007.3 13.2 14.1
2019-Dec-04 12:00S 38°48' E 144°54'4816.0 1008.1 13.7 14.7
2019-Dec-04 09:00S 38°00' E 144°54'1212.0 1010.2 15.6 17.7
2019-Dec-04 08:00S 37°48' E 144°54'0 0.0 1010.0 15.9 17.9
2019-Dec-04 07:00S 37°48' E 144°54'0 0.0 1009.2 17.4 17.9
2019-Dec-04 06:00S 37°48' E 144°54'0 0.0 1009.1 17.8 17.7
2019-Dec-04 05:00S 37°48' E 144°54'0 0.0 1010.2 20.3 17.5
2019-Dec-04 04:00S 37°48' E 144°54'0 0.0 1010.2 19.5 17.3
2019-Dec-04 03:00S 37°48' E 144°54'0 0.0 1010.4 18.8 17.2
2019-Dec-04 02:00S 37°48' E 144°54'0 0.0 1010.7 17.8 17.2
2019-Dec-04 01:00S 37°48' E 144°54'0 0.0 1011.0 16.5 17.2
2019-Dec-03 23:00S 37°48' E 144°54'0 0.0 1011.2 14.5 17.1
2019-Dec-03 22:00S 37°48' E 144°54'0 0.0 1011.4 13.9 17.2
2019-Dec-03 21:00S 37°48' E 144°54'0 0.0 1011.2 12.9 17.2
2019-Dec-03 20:00S 37°48' E 144°54'0 0.0 1010.9 12.3 17.2
2019-Dec-03 19:00S 37°48' E 144°54'1818.0 1010.2 11.8
2019-Dec-03 18:00S 38°06' E 144°54'1515.3 1007.9 11.5 16.1
2019-Dec-03 17:00S 38°18' E 144°42'1918.6 1008.7 11.2 15.2
2019-Dec-03 16:00S 38°36' E 144°48'2625.8 1006.3 12.4 14.6
2019-Dec-03 15:00S 39°00' E 145°00'2322.8 1005.0 12.4 13.9
2019-Dec-03 14:00S 39°18' E 145°18'2625.7 1004.4 12.3 13.7
2019-Dec-03 13:00S 39°42' E 145°30'5326.6 1004.3 11.5
2019-Dec-03 11:00S 40°30' E 146°00'2625.7 999.7 11.4 13.8
2019-Dec-03 10:00S 40°54' E 146°12'1123.8 996.8 10.2 13.9
2019-Dec-03 09:30S 41°04' E 146°20'714.5
2019-Dec-03 09:00S 41°11' E 146°22'0 0.2
2019-Dec-03 08:29S 41°11' E 146°22'2 3.9
2019-Dec-03 08:00S 41°12' E 146°24'2 3.8 995.8 11.5 14.1
2019-Dec-03 07:29S 41°11' E 146°22'2 3.9
2019-Dec-03 07:00S 41°12' E 146°24'2 3.7 994.4 12.7 14.1
2019-Dec-03 06:29S 41°11' E 146°22'0 0.0
2019-Dec-03 05:30S 41°11' E 146°22'2 3.7
2019-Dec-03 05:00S 41°12' E 146°24'2 3.9 992.3 15.7 14.3
2019-Dec-03 04:30S 41°11' E 146°22'2 3.7
2019-Dec-03 04:00S 41°12' E 146°24'2122.7 992.7 15.4 14.4
2019-Dec-03 03:59S 41°11' E 146°22'0 0.0
2019-Dec-03 03:28S 41°11' E 146°22'2 4.1
2019-Dec-03 03:00S 41°12' E 146°24'0 0.0 993.0 14.1 14.3
2019-Dec-03 02:00S 41°12' E 146°24'0 0.0 992.8 15.2 14.2
2019-Dec-03 01:00S 41°12' E 146°24'2 3.9 993.2 15.3 14.2
2019-Dec-03 00:30S 41°11' E 146°22'2 1.3
2019-Dec-02 23:00S 41°12' E 146°24'270.8 992.3 13.7 13.9
2019-Dec-02 22:58S 41°11' E 146°22'0 0.0
2019-Dec-02 22:28S 41°11' E 146°22'2 4.1
2019-Dec-02 22:00S 41°12' E 146°24'2 3.9 991.8 13.1 13.8
2019-Dec-02 21:30S 41°11' E 146°22'2 3.7
2019-Dec-02 21:00S 41°12' E 146°24'0 0.0 991.3 12.5 13.8
2019-Dec-02 20:00S 41°12' E 146°24'2 3.8 990.5 11.5 13.9
2019-Dec-02 19:29S 41°11' E 146°22'0 0.0
2019-Dec-02 19:00S 41°11' E 146°22'2132.1
2019-Dec-02 19:00S 41°12' E 146°24'5 9.7 990.6 10.3 14.5
2019-Dec-02 18:30S 41°08' E 146°22'2423.8
2019-Dec-02 17:30S 40°46' E 146°09'1223.1
2019-Dec-02 17:00S 40°36' E 146°00'2625.7 992.2 11.2 13.7
2019-Dec-02 16:00S 40°12' E 145°48'2625.7 994.6 11.4 13.8
2019-Dec-02 15:00S 39°48' E 145°36'2322.7 996.4 11.3 13.7
2019-Dec-02 14:00S 39°30' E 145°18'4623.0 998.6 11.7 13.8
2019-Dec-02 12:00S 38°48' E 144°54'2625.8 1001.8 11.2 14.8
2019-Dec-02 11:00S 38°24' E 144°42'1111.2 1002.8 11.9 15.3
2019-Dec-02 10:00S 38°18' E 144°54'1818.0 1002.7 12.0 16.5
2019-Dec-02 09:00S 38°00' E 144°54'1212.0 1002.9 12.7 17.6
2019-Dec-02 08:00S 37°48' E 144°54'   1003.4 13.3 17.6

Dump ship's entire track history